Ataun, Spain

10:06 AM CEST on August 04, 2015 (GMT +0200)
Diseminado rural 43 | | Change Station
CLOSE
Current Station
Personal Weather Station
Location: Idiazabal, PAíS VASCO
Elevation: 696 ft
Nearby Weather Stations

Elev 696 ft 43.02 °N, 2.22 °W | Updated 10 minutes ago

Mostly Cloudy
Mostly Cloudy
63.8 °F
Feels Like 63.8 °F
N
0.0
Wind Variable Wind from NE
Gusts 2.0 mph

Today
High -- | Low -- °F
--% Chance of Precip.
Yesterday
High -- | Low -- °F
Precip. -- in
7:02 AM 9:26 PM
Waning Gibbous, 80% visible
Pressure 30.12 in
Visibility 5.0 miles
Clouds Few 300 ft
Mostly Cloudy 1200 ft
Mostly Cloudy 2600 ft
Dew Point 62 °F
Humidity 95%
Rainfall 0.04 in
Snow Depth Not available.
UV 0.5 out of 12
Pollen Not available.
Air Quality Not available.
Flu Activity Not available.
METAR LESO 040800Z 00000KT 8000 FEW003 BKN012 BKN026 19/19 Q1020

More Conditions Fewer Conditions

Pressure 30.12 in
Visibility 5.0 miles
Clouds Few 300 ft
Mostly Cloudy 1200 ft
Mostly Cloudy 2600 ft
Dew Point 62 °F
Humidity 95%
Rainfall 0.04 in
Snow Depth Not available.
UV 0.5 out of 12
Pollen Not available.
Air Quality Not available.
Flu Activity Not available.
METAR LESO 040800Z 00000KT 8000 FEW003 BKN012 BKN026 19/19 Q1020

More Conditions Fewer Conditions

10-Day Weather Forecast

×

Almanac

Astronomy

Aug. 04, 2015 Rise Set
Actual Time
Civil Twilight
Nautical Twilight
Astronomical Twilight
Moon
Length of Visible Light
Length of Day
Tomorrow will be .
, % of the Moon is Illuminated

Today's Extremes

Country Highs Country Lows

Community

WunderPhotos

Upload Photos

1,843,877 photos uploaded!

WunderBlogs® & News

Nearby

Air Quality

  Air Quality AQ Index Pollutant
Not available.

Snow Depth

Station Depth Elevation

Earthquake Activity

City Distance Mag. Time & Date
Minimum magnitude displayed is 2.5.

Coastal Water Temperatures

Place Temperature

Stations

Nearby Weather Stations

Station Location Temp. Windchill Dew Point Humidity Wind Precip. Elev Updated Type